Terminal Aerodrome Forecast
Issued by NWS

Home | Current Version | Previous Version | Text Only | Print | Product List | Glossary On
Versions: 1 2 3 4 5 6 7 8 9 10 11 12 13
000
FTUS43 KMQT 161138
TAFSAW
TAF
KSAW 161138Z 1612/1712 22006KT P6SM FEW200
     FM162000 17005KT P6SM SCT200
     FM170400 VRB03KT P6SM BKN200=

USA.gov is the U.S. government's official web portal to all federal, state and local government web resources and services.